createdAt,value
2018-09-25T00:01:02.747Z,5.30
2018-09-25T00:03:36.393Z,5.30
2018-09-25T00:06:09.988Z,5.20
2018-09-25T00:08:43.595Z,5.10
2018-09-25T00:11:17.042Z,4.90
2018-09-25T00:13:50.783Z,4.80
2018-09-25T00:16:24.220Z,4.90
2018-09-25T00:18:57.889Z,4.80
2018-09-25T00:21:31.613Z,4.80
2018-09-25T00:24:05.265Z,5.00
2018-09-25T00:26:38.761Z,4.90
2018-09-25T00:29:12.405Z,4.90
2018-09-25T00:31:46.068Z,4.90
2018-09-25T00:34:19.818Z,4.90
2018-09-25T00:36:53.397Z,4.90
2018-09-25T00:39:27.057Z,4.80
2018-09-25T00:42:00.734Z,4.90
2018-09-25T00:44:34.401Z,4.80
2018-09-25T00:47:08.068Z,4.90
2018-09-25T00:49:41.689Z,4.80
2018-09-25T00:52:15.377Z,4.80
2018-09-25T00:54:49.049Z,4.80
2018-09-25T00:57:22.634Z,4.90
2018-09-25T00:59:55.986Z,4.90
2018-09-25T01:02:29.386Z,4.80
2018-09-25T01:05:03.042Z,4.80
2018-09-25T01:07:36.645Z,4.60
2018-09-25T01:10:10.265Z,4.60
2018-09-25T01:12:43.906Z,4.50
2018-09-25T01:15:17.481Z,4.50
2018-09-25T01:17:51.040Z,4.60
2018-09-25T01:20:24.722Z,4.60
2018-09-25T01:22:58.170Z,4.60
2018-09-25T01:25:31.511Z,4.60
2018-09-25T01:28:04.849Z,4.60
2018-09-25T01:30:38.425Z,4.60
2018-09-25T01:33:12.178Z,4.60
2018-09-25T01:35:45.629Z,4.60
2018-09-25T01:38:18.997Z,4.70
2018-09-25T01:40:52.593Z,4.70
2018-09-25T01:43:26.283Z,4.60
2018-09-25T01:45:59.893Z,4.50
2018-09-25T01:48:33.533Z,4.40
2018-09-25T01:51:07.254Z,4.20
2018-09-25T01:53:40.637Z,4.10
2018-09-25T01:56:14.410Z,4.20
2018-09-25T01:58:48.049Z,4.30
2018-09-25T02:01:22.618Z,4.30
2018-09-25T02:03:56.170Z,4.30
2018-09-25T02:06:29.514Z,4.30
2018-09-25T02:09:02.951Z,4.30
2018-09-25T02:11:36.544Z,4.20
2018-09-25T02:14:10.041Z,4.20
2018-09-25T02:16:43.425Z,4.30
2018-09-25T02:19:17.042Z,4.20
2018-09-25T02:21:50.655Z,4.30
2018-09-25T02:24:24.213Z,4.30
2018-09-25T02:26:57.909Z,4.30
2018-09-25T02:29:31.602Z,4.30
2018-09-25T02:32:05.247Z,4.30
2018-09-25T02:34:38.652Z,4.10
2018-09-25T02:37:12.326Z,4.10
2018-09-25T02:42:19.609Z,4.10
2018-09-25T02:44:53.220Z,4.10
2018-09-25T02:47:26.825Z,3.90
2018-09-25T02:50:00.351Z,3.90
2018-09-25T02:52:33.882Z,3.90
2018-09-25T02:55:07.410Z,3.80
2018-09-25T02:57:41.085Z,3.80
2018-09-25T03:00:14.751Z,3.70
2018-09-25T03:02:48.461Z,3.70
2018-09-25T03:05:22.118Z,3.70
2018-09-25T03:07:55.685Z,3.80
2018-09-25T03:10:29.317Z,4.00
2018-09-25T03:13:02.766Z,3.90
2018-09-25T03:15:41.849Z,3.80
2018-09-25T03:18:15.406Z,3.70
2018-09-25T03:20:49.081Z,3.80
2018-09-25T03:23:22.808Z,3.90
2018-09-25T03:25:56.467Z,3.90
2018-09-25T03:28:30.166Z,3.90
2018-09-25T03:31:03.876Z,3.90
2018-09-25T03:33:37.450Z,3.90
2018-09-25T03:36:10.878Z,3.90
2018-09-25T03:38:44.348Z,3.90
2018-09-25T03:41:17.961Z,3.90
2018-09-25T03:43:51.634Z,4.00
2018-09-25T03:46:25.378Z,4.00
2018-09-25T03:48:59.059Z,4.10
2018-09-25T03:51:32.657Z,4.10
2018-09-25T03:54:06.278Z,4.20
2018-09-25T03:56:39.643Z,4.20
2018-09-25T03:59:13.297Z,4.10
2018-09-25T04:01:46.855Z,4.10
2018-09-25T04:04:20.197Z,4.00
2018-09-25T04:06:53.867Z,4.10
2018-09-25T04:09:27.456Z,4.10
2018-09-25T04:12:00.990Z,4.10
2018-09-25T04:14:34.601Z,4.00
2018-09-25T04:17:08.246Z,4.00
2018-09-25T04:19:41.795Z,4.00
2018-09-25T04:22:15.453Z,4.00
2018-09-25T04:24:49.094Z,3.90
2018-09-25T04:27:22.765Z,4.00
2018-09-25T04:29:56.362Z,3.80
2018-09-25T04:32:29.907Z,3.80
2018-09-25T04:35:03.462Z,3.90
2018-09-25T04:37:37.013Z,3.90
2018-09-25T04:40:10.519Z,3.80
2018-09-25T04:42:44.225Z,3.70
2018-09-25T04:45:17.857Z,3.70
2018-09-25T04:47:51.554Z,3.70
2018-09-25T04:50:25.137Z,3.70
2018-09-25T04:52:58.774Z,3.50
2018-09-25T04:55:32.371Z,3.60
2018-09-25T04:58:06.050Z,3.60
2018-09-25T05:03:13.134Z,3.60
2018-09-25T05:05:46.529Z,3.60
2018-09-25T05:08:20.054Z,3.50
2018-09-25T05:10:53.882Z,3.50
2018-09-25T05:13:27.461Z,3.60
2018-09-25T05:16:02.101Z,3.70
2018-09-25T05:18:35.698Z,3.70
2018-09-25T05:21:09.461Z,3.70
2018-09-25T05:23:42.897Z,3.60
2018-09-25T05:26:16.564Z,3.50
2018-09-25T05:28:50.226Z,3.50
2018-09-25T05:31:24.000Z,3.50
2018-09-25T05:33:57.596Z,3.50
2018-09-25T05:36:31.189Z,3.50
2018-09-25T05:39:04.633Z,3.50
2018-09-25T05:41:38.331Z,3.70
2018-09-25T05:44:12.010Z,3.70
2018-09-25T05:46:45.724Z,4.00
2018-09-25T05:49:19.641Z,3.60
2018-09-25T05:51:53.105Z,3.40
2018-09-25T05:54:27.771Z,3.50
2018-09-25T05:57:05.141Z,3.50
2018-09-25T05:59:38.723Z,3.60
2018-09-25T06:02:12.117Z,3.60
2018-09-25T06:04:45.713Z,3.70
2018-09-25T06:07:19.309Z,3.70
2018-09-25T06:09:52.852Z,3.80
2018-09-25T06:12:26.322Z,3.80
2018-09-25T06:14:59.745Z,3.90
2018-09-25T06:17:33.226Z,4.10
2018-09-25T06:20:06.731Z,4.20
2018-09-25T06:22:40.430Z,4.60
2018-09-25T06:25:14.117Z,5.10
2018-09-25T06:27:47.658Z,5.50
2018-09-25T06:30:21.098Z,5.50
2018-09-25T06:32:54.743Z,5.40
2018-09-25T06:35:28.364Z,5.70
2018-09-25T06:38:02.032Z,6.00
2018-09-25T06:40:35.724Z,6.10
2018-09-25T06:43:09.318Z,6.30
2018-09-25T06:45:42.719Z,6.50
2018-09-25T06:48:16.450Z,6.60
2018-09-25T06:50:50.137Z,6.70
2018-09-25T06:53:23.662Z,6.80
2018-09-25T06:55:57.287Z,6.80
2018-09-25T06:58:30.941Z,7.00
2018-09-25T07:01:04.618Z,6.80
2018-09-25T07:03:38.326Z,7.00
2018-09-25T07:06:12.022Z,6.90
2018-09-25T07:08:45.468Z,6.90
2018-09-25T07:11:19.029Z,7.30
2018-09-25T07:13:52.553Z,7.70
2018-09-25T07:16:26.117Z,7.80
2018-09-25T07:18:59.791Z,8.00
2018-09-25T07:21:33.526Z,8.00
2018-09-25T07:24:07.106Z,8.10
2018-09-25T07:26:40.715Z,8.20
2018-09-25T07:29:14.073Z,8.20
2018-09-25T07:31:47.784Z,8.30
2018-09-25T07:34:21.424Z,8.70
2018-09-25T07:36:55.146Z,8.90
2018-09-25T07:39:28.604Z,9.00
2018-09-25T07:42:02.329Z,9.30
2018-09-25T07:44:35.970Z,9.60
2018-09-25T07:47:09.633Z,9.90
2018-09-25T07:49:43.233Z,10.30
2018-09-25T07:52:16.924Z,10.40
2018-09-25T07:54:50.501Z,10.50
2018-09-25T07:57:23.902Z,10.90
2018-09-25T07:59:57.597Z,11.00
2018-09-25T08:02:31.038Z,11.20
2018-09-25T08:05:04.733Z,11.20
2018-09-25T08:07:38.406Z,11.50
2018-09-25T08:10:12.083Z,12.00
2018-09-25T08:12:45.804Z,11.70
2018-09-25T08:15:19.612Z,11.90
2018-09-25T08:17:55.249Z,12.30
2018-09-25T08:20:29.017Z,12.30
2018-09-25T08:23:02.950Z,13.20
2018-09-25T08:25:36.528Z,13.60
2018-09-25T08:28:10.215Z,13.90
2018-09-25T08:30:43.749Z,13.70
2018-09-25T08:33:17.341Z,13.70
2018-09-25T08:35:50.749Z,14.40
2018-09-25T08:38:24.464Z,14.40
2018-09-25T08:40:58.129Z,14.90
2018-09-25T08:43:31.900Z,14.90
2018-09-25T08:46:05.557Z,15.50
2018-09-25T08:48:39.214Z,15.30
2018-09-25T08:51:12.907Z,15.30
2018-09-25T08:53:46.557Z,15.20
2018-09-25T08:56:20.321Z,15.20
2018-09-25T08:58:53.959Z,15.30
2018-09-25T09:01:27.535Z,15.10
2018-09-25T09:04:01.121Z,15.30
2018-09-25T09:06:34.457Z,16.10
2018-09-25T09:09:08.103Z,16.00
2018-09-25T09:11:41.820Z,15.90
2018-09-25T09:14:15.462Z,16.70
2018-09-25T09:16:49.161Z,16.60
2018-09-25T09:19:22.863Z,15.50
2018-09-25T09:21:56.504Z,16.70
2018-09-25T09:24:30.216Z,16.10
2018-09-25T09:27:03.693Z,16.20
2018-09-25T09:29:37.184Z,16.80
2018-09-25T09:32:10.832Z,17.00
2018-09-25T09:34:44.481Z,16.30
2018-09-25T09:37:18.128Z,17.10
2018-09-25T09:39:51.833Z,16.20
2018-09-25T09:42:25.388Z,16.60
2018-09-25T09:44:59.049Z,17.10
2018-09-25T09:47:32.615Z,17.00
2018-09-25T09:50:06.336Z,17.60
2018-09-25T09:52:40.111Z,17.80
2018-09-25T09:55:13.793Z,17.90
2018-09-25T09:57:47.317Z,17.30
2018-09-25T10:00:22.610Z,17.80
2018-09-25T10:02:56.301Z,17.00
2018-09-25T10:05:30.001Z,16.80
2018-09-25T10:08:03.661Z,17.90
2018-09-25T10:10:37.401Z,17.50
2018-09-25T10:13:11.040Z,17.30
2018-09-25T10:15:44.715Z,17.20
2018-09-25T10:18:25.135Z,17.20
2018-09-25T10:20:58.710Z,18.70
2018-09-25T10:23:32.462Z,17.30
2018-09-25T10:26:06.162Z,18.20
2018-09-25T10:28:39.785Z,17.20
2018-09-25T10:31:21.196Z,17.40
2018-09-25T10:33:54.748Z,18.20
2018-09-25T10:36:28.216Z,18.00
2018-09-25T10:39:01.794Z,18.00
2018-09-25T10:41:35.385Z,18.10
2018-09-25T10:44:09.052Z,18.50
2018-09-25T10:46:42.647Z,18.60
2018-09-25T10:49:16.312Z,19.00
2018-09-25T10:51:49.765Z,18.80
2018-09-25T10:54:23.464Z,19.60
2018-09-25T10:56:57.134Z,19.40
2018-09-25T10:59:30.745Z,18.20
2018-09-25T11:02:04.471Z,18.10
2018-09-25T11:04:38.186Z,18.70
2018-09-25T11:07:11.878Z,18.70
2018-09-25T11:09:45.570Z,18.50
2018-09-25T11:12:19.108Z,17.20
2018-09-25T11:14:53.830Z,17.90
2018-09-25T11:17:27.521Z,18.90
2018-09-25T11:20:01.181Z,18.60
2018-09-25T11:22:34.876Z,18.20
2018-09-25T11:25:08.550Z,19.30
2018-09-25T11:27:42.748Z,18.30
2018-09-25T11:30:16.464Z,18.20
2018-09-25T11:32:50.026Z,17.80
2018-09-25T11:35:23.659Z,18.80
2018-09-25T11:37:57.228Z,19.20
2018-09-25T11:40:30.605Z,18.80
2018-09-25T11:43:04.249Z,18.10
2018-09-25T11:45:37.829Z,18.20
2018-09-25T11:48:11.471Z,17.70
2018-09-25T11:50:44.882Z,18.80
2018-09-25T11:53:18.458Z,18.40
2018-09-25T11:55:52.045Z,18.80
2018-09-25T11:58:25.766Z,19.30
2018-09-25T12:00:59.433Z,19.70
2018-09-25T12:03:33.088Z,19.40
2018-09-25T12:06:06.768Z,18.20
2018-09-25T12:08:40.454Z,19.20
2018-09-25T12:11:14.126Z,18.70
2018-09-25T12:13:47.809Z,18.10
2018-09-25T12:16:21.266Z,17.90
2018-09-25T12:18:54.852Z,18.60
2018-09-25T12:21:28.445Z,18.10
2018-09-25T12:24:02.093Z,18.20
2018-09-25T12:26:35.772Z,18.00
2018-09-25T12:29:09.344Z,18.00
2018-09-25T12:31:42.901Z,17.60
2018-09-25T12:34:16.580Z,17.60
2018-09-25T12:36:50.285Z,17.90
2018-09-25T12:39:23.966Z,18.10
2018-09-25T12:41:57.683Z,17.10
2018-09-25T12:44:31.590Z,16.70
2018-09-25T12:47:05.755Z,17.60
2018-09-25T12:49:39.325Z,18.00
2018-09-25T12:52:13.278Z,17.70
2018-09-25T12:54:47.129Z,17.80
2018-09-25T12:57:20.996Z,17.30
2018-09-25T12:59:54.655Z,18.10
2018-09-25T13:02:28.321Z,17.50
2018-09-25T13:05:01.861Z,17.70
2018-09-25T13:07:48.598Z,17.50
2018-09-25T13:10:22.297Z,17.20
2018-09-25T13:12:55.869Z,17.80
2018-09-25T13:15:29.525Z,17.90
2018-09-25T13:18:03.101Z,17.80
2018-09-25T13:20:36.817Z,17.50
2018-09-25T13:23:10.362Z,17.00
2018-09-25T13:25:44.170Z,17.70
2018-09-25T13:28:17.730Z,17.60
2018-09-25T13:30:51.352Z,17.30
2018-09-25T13:33:25.060Z,17.10
2018-09-25T13:35:58.673Z,17.50
2018-09-25T13:38:32.339Z,17.20
2018-09-25T13:41:05.915Z,16.90
2018-09-25T13:43:39.368Z,17.70
2018-09-25T13:46:13.055Z,17.40
2018-09-25T13:48:46.724Z,17.30
2018-09-25T13:51:20.436Z,17.00
2018-09-25T13:53:54.246Z,17.00
2018-09-25T13:56:27.820Z,17.60
2018-09-25T13:59:01.450Z,17.40
2018-09-25T14:01:35.161Z,17.30
2018-09-25T14:04:08.731Z,16.60
2018-09-25T14:06:42.396Z,16.60
2018-09-25T14:09:15.839Z,16.30
2018-09-25T14:11:49.561Z,16.10
2018-09-25T14:14:23.214Z,16.30
2018-09-25T14:16:56.767Z,16.20
2018-09-25T14:19:30.376Z,16.40
2018-09-25T14:22:04.077Z,16.10
2018-09-25T14:24:37.759Z,16.20
2018-09-25T14:27:11.338Z,16.50
2018-09-25T14:29:44.993Z,16.20
2018-09-25T14:32:18.740Z,16.20
2018-09-25T14:34:52.553Z,16.00
2018-09-25T14:37:26.151Z,16.00
2018-09-25T14:39:59.733Z,15.90
2018-09-25T14:42:33.265Z,15.90
2018-09-25T14:45:06.854Z,15.70
2018-09-25T14:47:40.289Z,15.90
2018-09-25T14:50:13.946Z,16.10
2018-09-25T14:52:47.701Z,16.00
2018-09-25T14:55:21.417Z,16.00
2018-09-25T14:57:55.157Z,15.70
2018-09-25T15:00:28.852Z,16.00
2018-09-25T15:03:02.514Z,16.00
2018-09-25T15:05:36.255Z,15.60
2018-09-25T15:08:09.908Z,15.70
2018-09-25T15:10:43.609Z,15.60
2018-09-25T15:13:17.298Z,15.40
2018-09-25T15:15:51.017Z,15.30
2018-09-25T15:18:24.688Z,15.60
2018-09-25T15:20:58.336Z,15.70
2018-09-25T15:23:31.957Z,15.60
2018-09-25T15:26:05.614Z,15.50
2018-09-25T15:28:39.014Z,15.40
2018-09-25T15:31:12.579Z,15.30
2018-09-25T15:33:46.154Z,15.20
2018-09-25T15:36:19.722Z,15.00
2018-09-25T15:38:53.389Z,15.00
2018-09-25T15:41:27.125Z,15.00
2018-09-25T15:44:00.781Z,15.00
2018-09-25T15:46:34.382Z,15.10
2018-09-25T15:49:08.033Z,15.00
2018-09-25T15:51:41.711Z,15.10
2018-09-25T15:54:15.414Z,15.00
2018-09-25T15:56:49.095Z,15.00
2018-09-25T15:59:22.793Z,14.80
2018-09-25T16:01:56.408Z,14.80
2018-09-25T16:04:30.027Z,14.70
2018-09-25T16:07:03.593Z,14.70
2018-09-25T16:09:37.054Z,14.80
2018-09-25T16:12:10.457Z,14.70
2018-09-25T16:14:44.085Z,14.70
2018-09-25T16:17:17.699Z,14.60
2018-09-25T16:19:51.357Z,14.60
2018-09-25T16:22:25.016Z,14.50
2018-09-25T16:24:58.398Z,14.50
2018-09-25T16:27:31.764Z,14.40
2018-09-25T16:30:05.235Z,14.40
2018-09-25T16:32:38.727Z,14.30
2018-09-25T16:35:12.337Z,14.30
2018-09-25T16:37:46.015Z,14.30
2018-09-25T16:40:19.502Z,14.20
2018-09-25T16:42:53.082Z,14.10
2018-09-25T16:45:26.599Z,14.00
2018-09-25T16:48:00.024Z,13.90
2018-09-25T16:50:33.772Z,13.80
2018-09-25T16:53:07.462Z,13.70
2018-09-25T16:55:40.932Z,13.70
2018-09-25T16:58:14.556Z,13.50
2018-09-25T17:00:48.172Z,13.50
2018-09-25T17:03:21.752Z,13.40
2018-09-25T17:05:55.394Z,13.30
2018-09-25T17:08:29.133Z,13.20
2018-09-25T17:11:02.538Z,13.10
2018-09-25T17:13:36.181Z,13.00
2018-09-25T17:16:09.718Z,12.80
2018-09-25T17:18:43.505Z,12.80
2018-09-25T17:21:17.207Z,12.80
2018-09-25T17:23:50.849Z,12.70
2018-09-25T17:26:24.512Z,12.50
2018-09-25T17:28:57.949Z,12.50
2018-09-25T17:31:31.570Z,12.30
2018-09-25T17:34:05.226Z,12.30
2018-09-25T17:36:38.827Z,12.20
2018-09-25T17:39:13.738Z,12.10
2018-09-25T17:41:47.942Z,12.10
2018-09-25T17:44:21.367Z,12.00
2018-09-25T17:46:54.930Z,11.90
2018-09-25T17:49:28.605Z,11.90
2018-09-25T17:52:02.150Z,11.80
2018-09-25T17:54:35.888Z,11.70
2018-09-25T17:57:09.559Z,11.70
2018-09-25T17:59:43.090Z,11.60
2018-09-25T18:02:16.785Z,11.50
2018-09-25T18:04:50.355Z,11.50
2018-09-25T18:07:24.070Z,11.40
2018-09-25T18:09:57.742Z,11.40
2018-09-25T18:12:31.411Z,11.30
2018-09-25T18:15:05.085Z,11.10
2018-09-25T18:17:38.660Z,11.10
2018-09-25T18:20:12.258Z,11.00
2018-09-25T18:22:45.715Z,11.00
2018-09-25T18:25:19.341Z,11.00
2018-09-25T18:27:53.032Z,10.90
2018-09-25T18:30:26.686Z,10.90
2018-09-25T18:33:00.466Z,10.80
2018-09-25T18:35:34.067Z,10.80
2018-09-25T18:38:07.478Z,10.70
2018-09-25T18:40:41.328Z,10.70
2018-09-25T18:43:14.982Z,10.70
2018-09-25T18:45:48.350Z,10.70
2018-09-25T18:48:22.100Z,10.60
2018-09-25T18:50:55.822Z,10.40
2018-09-25T18:53:29.516Z,10.40
2018-09-25T18:56:03.332Z,10.30
2018-09-25T18:58:36.965Z,10.00
2018-09-25T19:01:11.051Z,10.10
2018-09-25T19:03:44.781Z,10.10
2018-09-25T19:06:18.393Z,9.50
2018-09-25T19:08:52.172Z,9.20
2018-09-25T19:11:25.857Z,9.10
2018-09-25T19:13:59.361Z,9.10
2018-09-25T19:16:32.833Z,9.20
2018-09-25T19:19:06.465Z,9.40
2018-09-25T19:21:40.108Z,9.50
2018-09-25T19:24:13.722Z,9.30
2018-09-25T19:26:47.408Z,8.90
2018-09-25T19:29:20.846Z,8.60
2018-09-25T19:31:54.569Z,8.70
2018-09-25T19:34:28.105Z,8.90
2018-09-25T19:39:53.441Z,8.90
2018-09-25T19:42:27.128Z,8.80
2018-09-25T19:45:00.817Z,8.60
2018-09-25T19:47:36.451Z,8.50
2018-09-25T19:50:09.912Z,8.60
2018-09-25T19:52:43.622Z,8.80
2018-09-25T19:55:17.266Z,8.30
2018-09-25T19:57:50.996Z,7.90
2018-09-25T20:00:24.610Z,7.90
2018-09-25T20:02:57.971Z,8.10
2018-09-25T20:05:31.669Z,8.30
2018-09-25T20:08:05.317Z,8.30
2018-09-25T20:10:39.094Z,8.40
2018-09-25T20:13:12.859Z,8.30
2018-09-25T20:15:46.491Z,8.20
2018-09-25T20:18:20.188Z,8.10
2018-09-25T20:20:53.861Z,7.80
2018-09-25T20:23:27.438Z,7.70
2018-09-25T20:26:01.114Z,7.70
2018-09-25T20:28:34.836Z,7.80
2018-09-25T20:31:08.637Z,7.80
2018-09-25T20:33:42.407Z,7.70
2018-09-25T20:36:16.020Z,7.80
2018-09-25T20:38:49.607Z,7.60
2018-09-25T20:41:23.306Z,7.40
2018-09-25T20:43:57.059Z,7.10
2018-09-25T20:46:30.891Z,6.90
2018-09-25T20:49:04.376Z,6.70
2018-09-25T20:51:38.301Z,6.50
2018-09-25T20:54:12.788Z,6.30
2018-09-25T20:56:46.298Z,6.20
2018-09-25T20:59:19.792Z,6.20
2018-09-25T21:01:53.830Z,6.10
2018-09-25T21:04:27.757Z,6.20
2018-09-25T21:07:01.562Z,6.30
2018-09-25T21:09:35.010Z,6.30
2018-09-25T21:12:08.503Z,6.10
2018-09-25T21:14:42.040Z,6.10
2018-09-25T21:17:15.758Z,6.00
2018-09-25T21:19:49.351Z,5.80
2018-09-25T21:22:22.867Z,5.80
2018-09-25T21:24:56.565Z,5.70
2018-09-25T21:27:30.196Z,5.70
2018-09-25T21:30:03.898Z,5.50
2018-09-25T21:32:37.513Z,5.40
2018-09-25T21:35:11.147Z,5.40
2018-09-25T21:37:44.729Z,5.30
2018-09-25T21:40:18.378Z,5.30
2018-09-25T21:42:52.019Z,5.30
2018-09-25T21:45:25.672Z,5.30
2018-09-25T21:47:59.103Z,5.20
2018-09-25T21:50:32.799Z,5.20
2018-09-25T21:53:07.378Z,5.20
2018-09-25T21:55:40.924Z,5.20
2018-09-25T21:58:15.048Z,5.20
2018-09-25T22:00:48.995Z,5.10
2018-09-25T22:05:56.290Z,5.00
2018-09-25T22:08:31.001Z,5.00
2018-09-25T22:11:04.601Z,5.00
2018-09-25T22:13:38.361Z,5.00
2018-09-25T22:16:12.115Z,5.00
2018-09-25T22:18:45.757Z,4.90
2018-09-25T22:21:19.377Z,4.90
2018-09-25T22:23:53.066Z,4.90
2018-09-25T22:26:26.662Z,4.80
2018-09-25T22:29:00.102Z,4.70
2018-09-25T22:31:33.769Z,4.70
2018-09-25T22:34:07.377Z,4.80
2018-09-25T22:36:40.774Z,4.70
2018-09-25T22:39:15.353Z,4.80
2018-09-25T22:41:49.137Z,4.80
2018-09-25T22:44:22.729Z,4.80
2018-09-25T22:46:56.422Z,4.80
2018-09-25T22:49:30.093Z,4.80
2018-09-25T22:52:04.201Z,4.80
2018-09-25T22:54:37.641Z,4.70
2018-09-25T22:57:11.805Z,4.60
2018-09-25T22:59:45.420Z,4.60
2018-09-25T23:02:19.076Z,4.50
2018-09-25T23:04:53.193Z,4.50
2018-09-25T23:07:26.574Z,4.60
2018-09-25T23:10:00.072Z,4.60
2018-09-25T23:12:33.651Z,4.50
2018-09-25T23:15:07.316Z,4.40
2018-09-25T23:17:40.945Z,4.40
2018-09-25T23:20:14.561Z,4.40
2018-09-25T23:22:48.200Z,4.50
2018-09-25T23:25:21.558Z,4.50
2018-09-25T23:27:55.196Z,4.50
2018-09-25T23:30:29.179Z,4.60
2018-09-25T23:33:02.733Z,4.60
2018-09-25T23:35:36.393Z,4.60
2018-09-25T23:38:09.948Z,4.60
2018-09-25T23:40:49.414Z,4.60
2018-09-25T23:43:30.485Z,4.70
2018-09-25T23:46:34.609Z,4.70
2018-09-25T23:49:10.160Z,4.70
2018-09-25T23:51:47.704Z,4.60
2018-09-25T23:54:33.757Z,4.60
2018-09-25T23:57:17.881Z,4.60
2018-09-25T23:59:53.391Z,4.50
